Wetterdaten: Woche 07.09.15 - 13.09.15 (KW37)
Datum Zeit Temperatur Luftfeuchte Luftdruck Niederschlag Windrichtung Sonnenschein Solar Wind
07.09.2015 00:00 6,9 C 87 % 1024,6 hPa 0,0 l/m N 0,00 h 0 W/m 0,0 km/h (0 Bft)
07.09.2015 01:00 6,8 C 89 % 1024,7 hPa 0,0 l/m N 0,00 h 0 W/m 0,0 km/h (0 Bft)
07.09.2015 02:00 6,4 C 90 % 1024,5 hPa 0,0 l/m N 0,00 h 0 W/m 0,0 km/h (0 Bft)
07.09.2015 03:00 5,4 C 89 % 1024,3 hPa 0,0 l/m N 0,00 h 0 W/m 0,0 km/h (0 Bft)
07.09.2015 04:00 4,5 C 90 % 1024,2 hPa 0,0 l/m N 0,00 h 0 W/m 0,0 km/h (0 Bft)
07.09.2015 05:00 3,9 C 90 % 1024,1 hPa 0,0 l/m N 0,00 h 0 W/m 0,0 km/h (0 Bft)
07.09.2015 06:00 3,4 C 91 % 1024,2 hPa 0,0 l/m N 0,00 h 6 W/m 0,0 km/h (0 Bft)
07.09.2015 07:00 3,1 C 92 % 1024,5 hPa 0,0 l/m N 0,00 h 22 W/m 0,0 km/h (0 Bft)
07.09.2015 08:00 4,2 C 95 % 1024,8 hPa 0,0 l/m N-NW 0,00 h 75 W/m 1,2 km/h (1 Bft)
07.09.2015 09:00 5,9 C 96 % 1025,1 hPa 0,0 l/m N 0,42 h 267 W/m 0,3 km/h (0 Bft)
07.09.2015 10:00 9,2 C 94 % 1025,3 hPa 0,0 l/m SW 0,92 h 493 W/m 7,1 km/h (2 Bft)
07.09.2015 11:00 11,8 C 75 % 1024,9 hPa 0,0 l/m SW 0,58 h 479 W/m 11,8 km/h (2 Bft)
07.09.2015 12:00 13,3 C 64 % 1024,6 hPa 0,0 l/m W-SW 0,25 h 357 W/m 11,1 km/h (2 Bft)
07.09.2015 13:00 14,0 C 62 % 1024,4 hPa 0,0 l/m W-NW 0,00 h 239 W/m 5,9 km/h (2 Bft)
07.09.2015 14:00 14,7 C 61 % 1024,2 hPa 0,0 l/m SW 0,08 h 265 W/m 5,1 km/h (1 Bft)
07.09.2015 15:00 14,7 C 62 % 1024,0 hPa 0,0 l/m SW 0,00 h 77 W/m 5,3 km/h (1 Bft)
07.09.2015 16:00 14,4 C 64 % 1024,0 hPa 0,0 l/m SW 0,00 h 100 W/m 2,8 km/h (1 Bft)
07.09.2015 17:00 14,3 C 65 % 1024,1 hPa 0,0 l/m N 0,00 h 60 W/m 0,5 km/h (0 Bft)
07.09.2015 18:00 14,1 C 67 % 1024,3 hPa 0,0 l/m N 0,00 h 33 W/m 0,0 km/h (0 Bft)
07.09.2015 19:00 13,8 C 75 % 1024,4 hPa 0,0 l/m N 0,00 h 14 W/m 0,0 km/h (0 Bft)
07.09.2015 20:00 13,0 C 78 % 1024,7 hPa 0,0 l/m SW 0,00 h 0 W/m 5,6 km/h (1 Bft)
07.09.2015 21:00 12,5 C 80 % 1025,0 hPa 0,0 l/m N 0,00 h 0 W/m 3,7 km/h (1 Bft)
07.09.2015 22:00 12,1 C 83 % 1024,9 hPa 0,0 l/m N 0,00 h 0 W/m 0,7 km/h (0 Bft)
07.09.2015 23:00 11,6 C 84 % 1024,8 hPa 0,0 l/m N 0,00 h 0 W/m 0,0 km/h (0 Bft)
08.09.2015 00:00 11,0 C 85 % 1024,8 hPa 0,0 l/m N 0,00 h 0 W/m 0,3 km/h (0 Bft)
08.09.2015 01:00 10,1 C 87 % 1024,7 hPa 0,0 l/m N 0,00 h 0 W/m 0,0 km/h (0 Bft)
08.09.2015 02:00 9,4 C 89 % 1024,3 hPa 0,0 l/m N 0,00 h 0 W/m 0,0 km/h (0 Bft)
08.09.2015 03:00 8,5 C 89 % 1024,0 hPa 0,0 l/m N 0,00 h 0 W/m 0,0 km/h (0 Bft)
08.09.2015 04:00 8,4 C 92 % 1023,6 hPa 0,0 l/m N 0,00 h 0 W/m 0,4 km/h (0 Bft)
08.09.2015 05:00 8,5 C 93 % 1023,3 hPa 0,0 l/m N 0,00 h 0 W/m 0,5 km/h (0 Bft)
08.09.2015 06:00 7,7 C 93 % 1022,9 hPa 0,0 l/m N 0,00 h 0 W/m 0,0 km/h (0 Bft)
08.09.2015 07:00 7,7 C 95 % 1023,1 hPa 0,0 l/m N 0,00 h 22 W/m 0,0 km/h (0 Bft)
08.09.2015 08:00 9,3 C 97 % 1022,6 hPa 0,0 l/m N 0,83 h 186 W/m 6,0 km/h (2 Bft)
08.09.2015 09:00 11,1 C 94 % 1022,4 hPa 0,0 l/m NO 0,17 h 137 W/m 11,5 km/h (2 Bft)
08.09.2015 10:00 12,4 C 85 % 1022,6 hPa 0,0 l/m O-SO 0,00 h 156 W/m 15,3 km/h (3 Bft)
08.09.2015 11:00 13,5 C 80 % 1022,6 hPa 0,0 l/m O-SO 0,42 h 473 W/m 15,2 km/h (3 Bft)
08.09.2015 12:00 15,0 C 71 % 1022,1 hPa 0,0 l/m O-NO 0,58 h 515 W/m 15,6 km/h (3 Bft)
08.09.2015 13:00 15,8 C 65 % 1021,6 hPa 0,0 l/m NO 0,50 h 527 W/m 16,1 km/h (3 Bft)
08.09.2015 14:00 16,6 C 59 % 1021,1 hPa 0,0 l/m NO 0,25 h 370 W/m 14,6 km/h (3 Bft)
08.09.2015 15:00 17,7 C 53 % 1020,7 hPa 0,0 l/m O-NO 0,67 h 565 W/m 16,9 km/h (3 Bft)
08.09.2015 16:00 18,7 C 51 % 1020,1 hPa 0,0 l/m NO 0,83 h 469 W/m 16,5 km/h (3 Bft)
08.09.2015 17:00 18,5 C 50 % 1019,8 hPa 0,0 l/m O-NO 0,75 h 301 W/m 13,6 km/h (3 Bft)
08.09.2015 18:00 18,2 C 50 % 1019,4 hPa 0,0 l/m O-NO 0,83 h 179 W/m 12,4 km/h (3 Bft)
08.09.2015 19:00 16,6 C 56 % 1019,4 hPa 0,0 l/m O 0,00 h 18 W/m 7,6 km/h (2 Bft)
08.09.2015 20:00 14,4 C 64 % 1019,6 hPa 0,0 l/m N 0,00 h 0 W/m 0,3 km/h (0 Bft)
08.09.2015 21:00 12,2 C 72 % 1020,0 hPa 0,0 l/m N 0,00 h 0 W/m 0,0 km/h (0 Bft)
08.09.2015 22:00 10,6 C 78 % 1020,0 hPa 0,0 l/m N 0,00 h 0 W/m 0,0 km/h (0 Bft)
08.09.2015 23:00 9,5 C 81 % 1020,1 hPa 0,0 l/m N 0,00 h 0 W/m 1,1 km/h (0 Bft)
09.09.2015 00:00 8,9 C 86 % 1020,1 hPa 0,0 l/m O-NO 0,00 h 0 W/m 1,6 km/h (1 Bft)
09.09.2015 01:00 8,5 C 88 % 1020,0 hPa 0,0 l/m N 0,00 h 0 W/m 2,3 km/h (1 Bft)
09.09.2015 02:00 8,0 C 89 % 1019,6 hPa 0,0 l/m O-NO 0,00 h 0 W/m 3,1 km/h (1 Bft)
09.09.2015 03:00 7,5 C 90 % 1019,3 hPa 0,0 l/m O-NO 0,00 h 0 W/m 2,7 km/h (1 Bft)
09.09.2015 04:00 7,2 C 90 % 1019,0 hPa 0,0 l/m O-NO 0,00 h 0 W/m 5,3 km/h (1 Bft)
09.09.2015 05:00 6,9 C 91 % 1018,7 hPa 0,0 l/m O-NO 0,00 h 0 W/m 2,5 km/h (1 Bft)
09.09.2015 06:00 6,6 C 92 % 1018,7 hPa 0,0 l/m N 0,00 h 5 W/m 2,1 km/h (1 Bft)
09.09.2015 07:00 6,7 C 93 % 1019,0 hPa 0,0 l/m O-NO 0,08 h 36 W/m 2,7 km/h (1 Bft)
09.09.2015 08:00 7,9 C 95 % 1019,1 hPa 0,0 l/m O-NO 0,75 h 175 W/m 6,1 km/h (2 Bft)
09.09.2015 09:00 10,4 C 87 % 1019,0 hPa 0,0 l/m NO 1,00 h 348 W/m 8,7 km/h (2 Bft)
09.09.2015 10:00 12,8 C 74 % 1019,2 hPa 0,0 l/m O-NO 1,00 h 504 W/m 15,6 km/h (3 Bft)
09.09.2015 11:00 14,9 C 60 % 1019,0 hPa 0,0 l/m O-NO 1,00 h 642 W/m 19,7 km/h (3 Bft)
09.09.2015 12:00 16,1 C 54 % 1018,7 hPa 0,0 l/m O-NO 1,00 h 723 W/m 19,4 km/h (3 Bft)
09.09.2015 13:00 17,2 C 50 % 1018,4 hPa 0,0 l/m O 1,00 h 745 W/m 20,5 km/h (4 Bft)
09.09.2015 14:00 18,1 C 48 % 1018,3 hPa 0,0 l/m NO 0,92 h 711 W/m 21,7 km/h (4 Bft)
09.09.2015 15:00 18,6 C 46 % 1017,7 hPa 0,0 l/m O-NO 0,83 h 585 W/m 21,7 km/h (4 Bft)
09.09.2015 16:00 18,9 C 44 % 1017,5 hPa 0,0 l/m O 1,00 h 532 W/m 22,4 km/h (4 Bft)
09.09.2015 17:00 18,8 C 44 % 1017,3 hPa 0,0 l/m O-SO 1,00 h 376 W/m 20,9 km/h (4 Bft)
09.09.2015 18:00 18,1 C 46 % 1017,4 hPa 0,0 l/m O-SO 0,83 h 173 W/m 17,0 km/h (3 Bft)
09.09.2015 19:00 16,4 C 52 % 1017,3 hPa 0,0 l/m O 0,00 h 16 W/m 9,3 km/h (2 Bft)
09.09.2015 20:00 14,6 C 60 % 1017,8 hPa 0,0 l/m O-NO 0,00 h 0 W/m 4,6 km/h (1 Bft)
09.09.2015 21:00 13,1 C 67 % 1018,1 hPa 0,0 l/m O 0,00 h 0 W/m 12,0 km/h (2 Bft)
09.09.2015 22:00 12,2 C 69 % 1017,9 hPa 0,0 l/m O 0,00 h 0 W/m 8,3 km/h (2 Bft)
09.09.2015 23:00 11,3 C 73 % 1018,0 hPa 0,0 l/m O-NO 0,00 h 0 W/m 7,5 km/h (2 Bft)
10.09.2015 00:00 10,4 C 78 % 1018,1 hPa 0,0 l/m NO 0,00 h 0 W/m 9,5 km/h (2 Bft)
10.09.2015 01:00 9,8 C 81 % 1017,9 hPa 0,0 l/m NO 0,00 h 0 W/m 6,3 km/h (2 Bft)
10.09.2015 02:00 8,9 C 85 % 1017,5 hPa 0,0 l/m NO 0,00 h 0 W/m 6,5 km/h (2 Bft)
10.09.2015 03:00 8,1 C 88 % 1017,3 hPa 0,0 l/m NO 0,00 h 0 W/m 8,2 km/h (2 Bft)
10.09.2015 04:00 7,4 C 90 % 1017,2 hPa 0,0 l/m N-NO 0,00 h 0 W/m 8,7 km/h (2 Bft)
10.09.2015 05:00 6,8 C 91 % 1017,1 hPa 0,0 l/m N-NO 0,00 h 0 W/m 7,8 km/h (2 Bft)
10.09.2015 06:00 6,4 C 93 % 1016,9 hPa 0,0 l/m N 0,00 h 5 W/m 11,7 km/h (2 Bft)
10.09.2015 07:00 6,8 C 95 % 1017,3 hPa 0,0 l/m NO 0,00 h 15 W/m 13,3 km/h (3 Bft)
10.09.2015 08:00 7,3 C 95 % 1017,4 hPa 0,0 l/m O-NO 0,00 h 55 W/m 16,8 km/h (3 Bft)
10.09.2015 09:00 8,3 C 91 % 1017,5 hPa 0,0 l/m O-NO 0,17 h 168 W/m 16,1 km/h (3 Bft)
10.09.2015 10:00 9,4 C 84 % 1017,5 hPa 0,0 l/m O-NO 0,17 h 250 W/m 17,2 km/h (3 Bft)
10.09.2015 11:00 10,7 C 79 % 1017,3 hPa 0,0 l/m O-NO 0,17 h 316 W/m 19,2 km/h (3 Bft)
10.09.2015 12:00 12,3 C 74 % 1017,0 hPa 0,0 l/m O-NO 0,58 h 564 W/m 20,2 km/h (4 Bft)
10.09.2015 13:00 13,7 C 68 % 1016,7 hPa 0,0 l/m O-SO 0,58 h 513 W/m 20,9 km/h (4 Bft)
10.09.2015 14:00 14,2 C 66 % 1016,5 hPa 0,0 l/m O-SO 0,75 h 622 W/m 22,2 km/h (4 Bft)
10.09.2015 15:00 15,5 C 62 % 1016,4 hPa 0,0 l/m O 0,83 h 601 W/m 18,5 km/h (3 Bft)
10.09.2015 16:00 15,7 C 61 % 1016,2 hPa 0,0 l/m O-SO 1,00 h 516 W/m 18,0 km/h (3 Bft)
10.09.2015 17:00 15,8 C 62 % 1016,0 hPa 0,0 l/m SO 1,00 h 355 W/m 17,7 km/h (3 Bft)
10.09.2015 18:00 14,8 C 65 % 1016,2 hPa 0,0 l/m O-SO 0,83 h 156 W/m 15,8 km/h (3 Bft)
10.09.2015 19:00 12,9 C 70 % 1016,3 hPa 0,0 l/m O 0,08 h 16 W/m 6,6 km/h (2 Bft)
10.09.2015 20:00 11,2 C 77 % 1016,4 hPa 0,0 l/m N 0,00 h 0 W/m 0,0 km/h (0 Bft)
10.09.2015 21:00 9,3 C 82 % 1016,5 hPa 0,0 l/m N 0,00 h 0 W/m 0,0 km/h (0 Bft)
10.09.2015 22:00 8,1 C 85 % 1016,4 hPa 0,0 l/m N 0,00 h 0 W/m 0,0 km/h (0 Bft)
10.09.2015 23:00 7,3 C 87 % 1016,4 hPa 0,0 l/m O 0,00 h 0 W/m 1,7 km/h (1 Bft)
11.09.2015 00:00 6,9 C 91 % 1016,1 hPa 0,0 l/m O 0,00 h 0 W/m 0,8 km/h (0 Bft)
11.09.2015 01:00 6,8 C 92 % 1015,8 hPa 0,0 l/m O-NO 0,00 h 0 W/m 2,0 km/h (1 Bft)
11.09.2015 02:00 6,2 C 92 % 1015,3 hPa 0,0 l/m N 0,00 h 0 W/m 0,0 km/h (0 Bft)
11.09.2015 03:00 5,8 C 93 % 1015,2 hPa 0,0 l/m N 0,00 h 0 W/m 0,1 km/h (0 Bft)
11.09.2015 04:00 5,6 C 94 % 1015,2 hPa 0,0 l/m N 0,00 h 0 W/m 0,9 km/h (0 Bft)
11.09.2015 05:00 5,4 C 94 % 1015,1 hPa 0,0 l/m O-NO 0,00 h 0 W/m 2,0 km/h (1 Bft)
11.09.2015 06:00 5,5 C 95 % 1015,5 hPa 0,0 l/m O-NO 0,00 h 5 W/m 2,0 km/h (1 Bft)
11.09.2015 07:00 5,6 C 96 % 1016,0 hPa 0,0 l/m N 0,00 h 38 W/m 0,0 km/h (0 Bft)
11.09.2015 08:00 6,0 C 96 % 1016,3 hPa 0,0 l/m N 0,42 h 140 W/m 0,0 km/h (0 Bft)
11.09.2015 09:00 8,0 C 96 % 1016,6 hPa 0,0 l/m S 1,00 h 311 W/m 2,0 km/h (1 Bft)
11.09.2015 10:00 10,8 C 89 % 1016,7 hPa 0,0 l/m S 1,00 h 468 W/m 6,4 km/h (2 Bft)
11.09.2015 11:00 13,9 C 81 % 1016,5 hPa 0,0 l/m S-SW 1,00 h 576 W/m 10,3 km/h (2 Bft)
11.09.2015 12:00 15,9 C 76 % 1016,0 hPa 0,0 l/m SW 0,42 h 396 W/m 11,5 km/h (2 Bft)
11.09.2015 13:00 17,5 C 70 % 1015,7 hPa 0,0 l/m SW 0,83 h 601 W/m 16,6 km/h (3 Bft)
11.09.2015 14:00 19,1 C 59 % 1015,4 hPa 0,0 l/m W-SW 0,92 h 613 W/m 16,9 km/h (3 Bft)
11.09.2015 15:00 20,6 C 51 % 1015,2 hPa 0,0 l/m SW 1,00 h 644 W/m 17,3 km/h (3 Bft)
11.09.2015 16:00 21,4 C 50 % 1015,0 hPa 0,0 l/m W-SW 0,75 h 424 W/m 18,0 km/h (3 Bft)
11.09.2015 17:00 20,4 C 56 % 1014,7 hPa 0,0 l/m SW 0,50 h 225 W/m 14,4 km/h (3 Bft)
11.09.2015 18:00 20,1 C 60 % 1014,7 hPa 0,0 l/m SW 0,83 h 145 W/m 9,5 km/h (2 Bft)
11.09.2015 19:00 18,1 C 67 % 1015,1 hPa 2,8 l/m W 0,00 h 14 W/m 11,9 km/h (2 Bft)
11.09.2015 20:00 14,1 C 85 % 1015,7 hPa 0,0 l/m S-SW 0,00 h 0 W/m 2,8 km/h (1 Bft)
11.09.2015 21:00 12,8 C 89 % 1016,0 hPa 0,0 l/m N 0,00 h 0 W/m 0,0 km/h (0 Bft)
11.09.2015 22:00 11,7 C 90 % 1016,1 hPa 0,0 l/m N 0,00 h 0 W/m 0,0 km/h (0 Bft)
11.09.2015 23:00 10,9 C 91 % 1016,0 hPa 0,0 l/m N 0,00 h 0 W/m 0,0 km/h (0 Bft)
12.09.2015 00:00 10,5 C 93 % 1015,9 hPa 0,0 l/m N 0,00 h 0 W/m 0,4 km/h (0 Bft)
12.09.2015 01:00 10,0 C 94 % 1015,9 hPa 0,0 l/m N 0,00 h 0 W/m 0,0 km/h (0 Bft)
12.09.2015 02:00 9,8 C 95 % 1015,6 hPa 0,0 l/m N 0,00 h 0 W/m 0,0 km/h (0 Bft)
12.09.2015 03:00 9,4 C 95 % 1015,5 hPa 0,0 l/m N 0,00 h 0 W/m 0,0 km/h (0 Bft)
12.09.2015 04:00 8,9 C 95 % 1015,6 hPa 0,0 l/m N 0,00 h 0 W/m 0,0 km/h (0 Bft)
12.09.2015 05:00 9,3 C 96 % 1015,6 hPa 0,2 l/m N 0,00 h 0 W/m 0,0 km/h (0 Bft)
12.09.2015 06:00 9,9 C 97 % 1015,7 hPa 0,0 l/m N 0,00 h 0 W/m 0,1 km/h (0 Bft)
12.09.2015 07:00 10,3 C 97 % 1016,0 hPa 0,0 l/m N 0,00 h 23 W/m 0,7 km/h (0 Bft)
12.09.2015 08:00 11,2 C 98 % 1016,0 hPa 0,0 l/m S-SW 0,25 h 131 W/m 0,5 km/h (0 Bft)
12.09.2015 09:00 12,4 C 98 % 1016,1 hPa 0,0 l/m N 0,83 h 278 W/m 0,7 km/h (0 Bft)
12.09.2015 10:00 14,0 C 98 % 1015,9 hPa 0,0 l/m S-SW 1,00 h 476 W/m 5,0 km/h (1 Bft)
12.09.2015 11:00 16,6 C 87 % 1015,6 hPa 0,0 l/m S-SW 1,00 h 604 W/m 7,8 km/h (2 Bft)
12.09.2015 12:00 19,4 C 68 % 1015,3 hPa 0,0 l/m S-SW 1,00 h 688 W/m 9,5 km/h (2 Bft)
12.09.2015 13:00 21,8 C 56 % 1014,6 hPa 0,0 l/m SW 1,00 h 720 W/m 12,5 km/h (3 Bft)
12.09.2015 14:00 23,4 C 49 % 1013,9 hPa 0,0 l/m S-SW 1,00 h 685 W/m 13,8 km/h (3 Bft)
12.09.2015 15:00 25,6 C 40 % 1013,2 hPa 0,0 l/m S-SW 1,00 h 625 W/m 11,3 km/h (2 Bft)
12.09.2015 16:00 27,0 C 37 % 1012,7 hPa 0,0 l/m S-SW 1,00 h 487 W/m 9,4 km/h (2 Bft)
12.09.2015 17:00 27,1 C 36 % 1012,1 hPa 0,0 l/m S 1,00 h 362 W/m 4,5 km/h (1 Bft)
12.09.2015 18:00 26,4 C 44 % 1011,8 hPa 0,0 l/m N 0,75 h 139 W/m 0,7 km/h (0 Bft)
12.09.2015 19:00 22,5 C 54 % 1011,6 hPa 0,0 l/m N 0,00 h 10 W/m 0,0 km/h (0 Bft)
12.09.2015 20:00 18,5 C 65 % 1012,1 hPa 0,0 l/m N 0,00 h 0 W/m 0,0 km/h (0 Bft)
12.09.2015 21:00 16,4 C 74 % 1012,6 hPa 0,0 l/m N 0,00 h 0 W/m 0,0 km/h (0 Bft)
12.09.2015 22:00 15,3 C 77 % 1012,8 hPa 0,0 l/m S 0,00 h 0 W/m 4,4 km/h (1 Bft)
12.09.2015 23:00 15,5 C 77 % 1013,5 hPa 0,0 l/m W 0,00 h 0 W/m 4,4 km/h (1 Bft)
13.09.2015 00:00 15,1 C 81 % 1013,5 hPa 0,0 l/m N 0,00 h 0 W/m 0,4 km/h (0 Bft)
13.09.2015 01:00 14,2 C 84 % 1013,4 hPa 0,0 l/m N 0,00 h 0 W/m 0,7 km/h (0 Bft)
13.09.2015 02:00 13,6 C 88 % 1013,2 hPa 0,0 l/m N 0,00 h 0 W/m 0,0 km/h (0 Bft)
13.09.2015 03:00 13,4 C 90 % 1012,6 hPa 0,0 l/m N 0,00 h 0 W/m 0,0 km/h (0 Bft)
13.09.2015 04:00 12,8 C 90 % 1012,1 hPa 0,0 l/m N 0,00 h 0 W/m 0,0 km/h (0 Bft)
13.09.2015 05:00 12,4 C 92 % 1011,6 hPa 0,0 l/m N 0,00 h 0 W/m 0,0 km/h (0 Bft)
13.09.2015 06:00 11,9 C 92 % 1011,0 hPa 0,0 l/m N 0,00 h 0 W/m 0,0 km/h (0 Bft)
13.09.2015 07:00 11,7 C 93 % 1010,7 hPa 0,0 l/m N 0,00 h 25 W/m 0,0 km/h (0 Bft)
13.09.2015 08:00 12,7 C 96 % 1010,2 hPa 0,0 l/m W 0,75 h 173 W/m 3,2 km/h (1 Bft)
13.09.2015 09:00 15,4 C 91 % 1009,4 hPa 0,0 l/m W 0,42 h 215 W/m 8,2 km/h (2 Bft)
13.09.2015 10:00 18,2 C 76 % 1008,7 hPa 0,0 l/m O 0,08 h 227 W/m 13,7 km/h (3 Bft)
13.09.2015 11:00 19,9 C 68 % 1008,0 hPa 0,0 l/m O-SO 0,17 h 260 W/m 17,7 km/h (3 Bft)
13.09.2015 12:00 21,0 C 63 % 1007,2 hPa 0,0 l/m O-SO 0,00 h 189 W/m 14,4 km/h (3 Bft)
13.09.2015 13:00 21,7 C 62 % 1006,8 hPa 0,0 l/m O-SO 0,00 h 186 W/m 9,9 km/h (2 Bft)
13.09.2015 14:00 22,0 C 69 % 1006,9 hPa 0,2 l/m N 0,00 h 75 W/m 1,6 km/h (1 Bft)
13.09.2015 15:00 20,7 C 82 % 1006,4 hPa 0,2 l/m SW 0,08 h 203 W/m 3,1 km/h (1 Bft)
13.09.2015 16:00 20,1 C 84 % 1006,1 hPa 0,0 l/m SW 0,00 h 131 W/m 7,1 km/h (2 Bft)
13.09.2015 17:00 20,3 C 82 % 1005,7 hPa 0,0 l/m S 0,75 h 304 W/m 7,5 km/h (2 Bft)
13.09.2015 18:00 22,0 C 71 % 1004,9 hPa 0,0 l/m N 0,75 h 157 W/m 2,0 km/h (1 Bft)
13.09.2015 19:00 20,2 C 75 % 1004,7 hPa 0,0 l/m N 0,00 h 11 W/m 0,0 km/h (0 Bft)
13.09.2015 20:00 17,0 C 81 % 1004,6 hPa 0,0 l/m N 0,00 h 0 W/m 0,0 km/h (0 Bft)
13.09.2015 21:00 14,8 C 86 % 1004,4 hPa 0,0 l/m N 0,00 h 0 W/m 0,7 km/h (0 Bft)
13.09.2015 22:00 13,6 C 89 % 1004,1 hPa 0,0 l/m N 0,00 h 0 W/m 0,0 km/h (0 Bft)
13.09.2015 23:00 13,0 C 91 % 1003,7 hPa 0,0 l/m N 0,00 h 0 W/m 0,0 km/h (0 Bft)
Min-Datum _ 07.09.15 12.09.15 13.09.15 - - - - 07.09.15
_ Min-Zeit 07:20 16:30 23:30 - - - - 00:00
Minimum _ 3,0 C 34 % 1003,6 hPa - - - - 0,0 km/h (0 Bft)
Max-Datum _ 12.09.15 12.09.15 07.09.15 11.09.15 - 07.09.15 08.09.15 11.09.15
_ Max-Zeit 16:35 09:15 10:05 19:45 - 09:20 13:50 19:45
Maximum _ 27,2 C 99 % 1025,4 hPa 2,8 l/m - 0,08 h 867 W/m 51,5 km/h
SW (7 Bft)
Durchschnitt _ 12,9 C 78 % 1017,2 hPa #3,4 l/m O-NO #46:10 h 296 W/m 6,5 km/h (2 Bft)